sensor_id;sensor_type;location;lat;lon;timestamp;pressure;altitude;pressure_sealevel;temperature;humidity
77454;BME280;66538;53.150;18.160;2023-05-20T00:00:41;102608.73;;;12.15;76.46
77454;BME280;66538;53.150;18.160;2023-05-20T00:03:18;102607.46;;;12.15;76.53
77454;BME280;66538;53.150;18.160;2023-05-20T00:05:48;102602.76;;;12.14;76.49
77454;BME280;66538;53.150;18.160;2023-05-20T00:08:17;102602.14;;;12.13;76.53
77454;BME280;66538;53.150;18.160;2023-05-20T00:10:43;102601.14;;;12.13;76.53
77454;BME280;66538;53.150;18.160;2023-05-20T00:13:10;102602.09;;;12.14;76.76
77454;BME280;66538;53.150;18.160;2023-05-20T00:15:37;102600.61;;;12.14;76.81
77454;BME280;66538;53.150;18.160;2023-05-20T00:18:04;102599.21;;;12.14;76.98
77454;BME280;66538;53.150;18.160;2023-05-20T00:20:31;102598.41;;;12.13;77.04
77454;BME280;66538;53.150;18.160;2023-05-20T00:22:58;102595.56;;;12.13;77.09
77454;BME280;66538;53.150;18.160;2023-05-20T00:25:25;102594.85;;;12.11;77.02
77454;BME280;66538;53.150;18.160;2023-05-20T00:27:51;102591.34;;;12.08;76.90
77454;BME280;66538;53.150;18.160;2023-05-20T00:30:18;102591.95;;;12.11;76.95
77454;BME280;66538;53.150;18.160;2023-05-20T00:32:45;102590.60;;;12.12;76.96
77454;BME280;66538;53.150;18.160;2023-05-20T00:35:11;102590.60;;;12.12;76.97
77454;BME280;66538;53.150;18.160;2023-05-20T00:37:38;102589.83;;;12.11;77.23
77454;BME280;66538;53.150;18.160;2023-05-20T00:40:06;102590.32;;;12.11;77.21
77454;BME280;66538;53.150;18.160;2023-05-20T00:42:33;102592.24;;;12.12;77.17
77454;BME280;66538;53.150;18.160;2023-05-20T00:44:59;102585.47;;;12.11;77.44
77454;BME280;66538;53.150;18.160;2023-05-20T00:47:32;102582.78;;;12.11;77.27
77454;BME280;66538;53.150;18.160;2023-05-20T00:49:59;102581.70;;;12.11;77.26
77454;BME280;66538;53.150;18.160;2023-05-20T00:52:28;102581.75;;;12.10;77.37
77454;BME280;66538;53.150;18.160;2023-05-20T00:54:57;102580.25;;;12.10;77.13
77454;BME280;66538;53.150;18.160;2023-05-20T00:57:24;102578.08;;;12.10;77.25
77454;BME280;66538;53.150;18.160;2023-05-20T00:59:52;102578.07;;;12.09;77.14
77454;BME280;66538;53.150;18.160;2023-05-20T01:02:19;102580.04;;;12.10;77.26
77454;BME280;66538;53.150;18.160;2023-05-20T01:04:47;102583.24;;;12.09;77.36
77454;BME280;66538;53.150;18.160;2023-05-20T01:07:15;102581.96;;;12.08;77.48
77454;BME280;66538;53.150;18.160;2023-05-20T01:09:43;102580.13;;;12.07;77.23
77454;BME280;66538;53.150;18.160;2023-05-20T01:14:49;102574.69;;;12.07;77.32
77454;BME280;66538;53.150;18.160;2023-05-20T01:17:18;102577.02;;;12.07;77.11
77454;BME280;66538;53.150;18.160;2023-05-20T01:19:46;102571.25;;;12.07;77.43
77454;BME280;66538;53.150;18.160;2023-05-20T01:22:36;102571.77;;;12.06;77.47
77454;BME280;66538;53.150;18.160;2023-05-20T01:25:03;102571.70;;;12.07;77.37
77454;BME280;66538;53.150;18.160;2023-05-20T01:27:30;102575.48;;;12.07;77.24
77454;BME280;66538;53.150;18.160;2023-05-20T01:29:57;102578.31;;;12.08;77.38
77454;BME280;66538;53.150;18.160;2023-05-20T01:32:33;102578.81;;;12.08;77.27
77454;BME280;66538;53.150;18.160;2023-05-20T01:35:03;102581.25;;;12.08;77.34
77454;BME280;66538;53.150;18.160;2023-05-20T01:37:33;102580.77;;;12.06;77.65
77454;BME280;66538;53.150;18.160;2023-05-20T01:40:02;102582.26;;;12.05;77.52
77454;BME280;66538;53.150;18.160;2023-05-20T01:42:31;102576.87;;;12.03;77.62
77454;BME280;66538;53.150;18.160;2023-05-20T01:45:00;102576.30;;;12.02;77.71
77454;BME280;66538;53.150;18.160;2023-05-20T01:47:26;102571.38;;;12.01;77.52
77454;BME280;66538;53.150;18.160;2023-05-20T01:49:53;102572.40;;;12.00;77.41
77454;BME280;66538;53.150;18.160;2023-05-20T01:52:20;102569.42;;;12.01;77.62
77454;BME280;66538;53.150;18.160;2023-05-20T01:54:48;102569.30;;;12.00;77.52
77454;BME280;66538;53.150;18.160;2023-05-20T01:57:21;102569.85;;;12.00;77.52
77454;BME280;66538;53.150;18.160;2023-05-20T01:59:49;102570.77;;;12.01;77.53
77454;BME280;66538;53.150;18.160;2023-05-20T02:02:16;102569.21;;;12.00;77.34
77454;BME280;66538;53.150;18.160;2023-05-20T02:04:49;102571.52;;;12.00;77.66
77454;BME280;66538;53.150;18.160;2023-05-20T02:07:17;102570.99;;;11.99;77.70
77454;BME280;66538;53.150;18.160;2023-05-20T02:09:45;102568.58;;;11.98;77.78
77454;BME280;66538;53.150;18.160;2023-05-20T02:12:12;102569.05;;;11.98;77.67
77454;BME280;66538;53.150;18.160;2023-05-20T02:14:43;102568.02;;;11.98;77.90
77454;BME280;66538;53.150;18.160;2023-05-20T02:17:11;102569.62;;;11.96;78.00
77454;BME280;66538;53.150;18.160;2023-05-20T02:19:39;102571.13;;;11.96;77.73
77454;BME280;66538;53.150;18.160;2023-05-20T02:22:06;102566.93;;;11.94;77.81
77454;BME280;66538;53.150;18.160;2023-05-20T02:24:33;102560.85;;;11.94;77.79
77454;BME280;66538;53.150;18.160;2023-05-20T02:27:00;102561.23;;;11.94;77.66
77454;BME280;66538;53.150;18.160;2023-05-20T02:29:28;102561.55;;;11.93;77.85
77454;BME280;66538;53.150;18.160;2023-05-20T02:31:55;102564.97;;;11.93;77.70
77454;BME280;66538;53.150;18.160;2023-05-20T02:34:21;102567.27;;;11.93;77.90
77454;BME280;66538;53.150;18.160;2023-05-20T02:36:48;102562.81;;;11.92;77.59
77454;BME280;66538;53.150;18.160;2023-05-20T02:39:15;102562.17;;;11.93;77.82
77454;BME280;66538;53.150;18.160;2023-05-20T02:41:42;102560.09;;;11.92;77.59
77454;BME280;66538;53.150;18.160;2023-05-20T02:44:09;102561.95;;;11.90;77.75
77454;BME280;66538;53.150;18.160;2023-05-20T02:46:36;102561.05;;;11.92;77.73
77454;BME280;66538;53.150;18.160;2023-05-20T02:49:02;102558.42;;;11.91;77.65
77454;BME280;66538;53.150;18.160;2023-05-20T02:51:29;102559.36;;;11.91;77.66
77454;BME280;66538;53.150;18.160;2023-05-20T02:53:58;102557.00;;;11.91;77.64
77454;BME280;66538;53.150;18.160;2023-05-20T02:56:25;102558.49;;;11.92;77.79
77454;BME280;66538;53.150;18.160;2023-05-20T02:58:52;102556.79;;;11.91;77.69
77454;BME280;66538;53.150;18.160;2023-05-20T03:01:19;102558.73;;;11.90;77.86
77454;BME280;66538;53.150;18.160;2023-05-20T03:03:46;102561.23;;;11.92;77.53
77454;BME280;66538;53.150;18.160;2023-05-20T03:06:12;102556.80;;;11.91;77.64
77454;BME280;66538;53.150;18.160;2023-05-20T03:08:39;102557.90;;;11.90;77.56
77454;BME280;66538;53.150;18.160;2023-05-20T03:11:08;102556.01;;;11.90;77.63
77454;BME280;66538;53.150;18.160;2023-05-20T03:13:34;102556.77;;;11.90;77.48
77454;BME280;66538;53.150;18.160;2023-05-20T03:16:01;102562.00;;;11.90;77.75
77454;BME280;66538;53.150;18.160;2023-05-20T03:18:28;102565.79;;;11.89;77.61
77454;BME280;66538;53.150;18.160;2023-05-20T03:20:55;102567.52;;;11.91;77.74
77454;BME280;66538;53.150;18.160;2023-05-20T03:23:22;102567.85;;;11.91;77.57
77454;BME280;66538;53.150;18.160;2023-05-20T03:25:48;102568.89;;;11.92;77.46
77454;BME280;66538;53.150;18.160;2023-05-20T03:28:16;102570.92;;;11.90;77.57
77454;BME280;66538;53.150;18.160;2023-05-20T03:30:43;102567.64;;;11.89;77.31
77454;BME280;66538;53.150;18.160;2023-05-20T03:33:10;102571.09;;;11.90;77.30
77454;BME280;66538;53.150;18.160;2023-05-20T03:35:37;102572.19;;;11.91;77.67
77454;BME280;66538;53.150;18.160;2023-05-20T03:38:04;102572.06;;;11.92;77.35
77454;BME280;66538;53.150;18.160;2023-05-20T03:40:32;102578.30;;;11.93;77.00
77454;BME280;66538;53.150;18.160;2023-05-20T03:42:59;102577.38;;;11.93;77.05
77454;BME280;66538;53.150;18.160;2023-05-20T03:45:25;102576.35;;;11.94;77.24
77454;BME280;66538;53.150;18.160;2023-05-20T03:48:02;102576.69;;;11.94;77.13
77454;BME280;66538;53.150;18.160;2023-05-20T03:50:29;102576.27;;;11.94;77.04
77454;BME280;66538;53.150;18.160;2023-05-20T03:52:56;102578.34;;;11.96;77.10
77454;BME280;66538;53.150;18.160;2023-05-20T03:55:23;102579.02;;;11.98;76.92
77454;BME280;66538;53.150;18.160;2023-05-20T03:57:50;102583.63;;;11.99;76.79
77454;BME280;66538;53.150;18.160;2023-05-20T04:00:17;102581.25;;;12.02;76.87
77454;BME280;66538;53.150;18.160;2023-05-20T04:02:44;102579.65;;;12.05;76.81
77454;BME280;66538;53.150;18.160;2023-05-20T04:05:12;102577.15;;;12.07;76.83
77454;BME280;66538;53.150;18.160;2023-05-20T04:07:40;102579.77;;;12.08;76.79
77454;BME280;66538;53.150;18.160;2023-05-20T04:10:08;102583.59;;;12.10;76.95
77454;BME280;66538;53.150;18.160;2023-05-20T04:12:34;102586.39;;;12.13;76.45
77454;BME280;66538;53.150;18.160;2023-05-20T04:15:04;102581.89;;;12.14;76.69
77454;BME280;66538;53.150;18.160;2023-05-20T04:17:37;102580.11;;;12.16;76.51
77454;BME280;66538;53.150;18.160;2023-05-20T04:20:06;102579.82;;;12.18;76.58
77454;BME280;66538;53.150;18.160;2023-05-20T04:22:33;102581.04;;;12.18;76.32
77454;BME280;66538;53.150;18.160;2023-05-20T04:25:00;102582.42;;;12.20;76.11
77454;BME280;66538;53.150;18.160;2023-05-20T04:27:29;102581.23;;;12.18;76.41
77454;BME280;66538;53.150;18.160;2023-05-20T04:29:56;102586.55;;;12.21;76.18
77454;BME280;66538;53.150;18.160;2023-05-20T04:32:24;102584.75;;;12.19;76.29
77454;BME280;66538;53.150;18.160;2023-05-20T04:34:52;102587.06;;;12.21;75.95
77454;BME280;66538;53.150;18.160;2023-05-20T04:37:22;102584.85;;;12.21;76.06
77454;BME280;66538;53.150;18.160;2023-05-20T04:39:48;102584.61;;;12.22;76.10
77454;BME280;66538;53.150;18.160;2023-05-20T04:42:15;102577.85;;;12.24;75.90
77454;BME280;66538;53.150;18.160;2023-05-20T04:44:46;102578.70;;;12.25;75.92
77454;BME280;66538;53.150;18.160;2023-05-20T04:47:14;102578.11;;;12.30;75.86
77454;BME280;66538;53.150;18.160;2023-05-20T04:49:41;102578.23;;;12.33;75.66
77454;BME280;66538;53.150;18.160;2023-05-20T04:52:07;102578.46;;;12.37;75.43
77454;BME280;66538;53.150;18.160;2023-05-20T04:54:34;102581.28;;;12.41;75.40
77454;BME280;66538;53.150;18.160;2023-05-20T04:57:01;102584.17;;;12.46;75.15
77454;BME280;66538;53.150;18.160;2023-05-20T04:59:28;102583.32;;;12.51;75.40
77454;BME280;66538;53.150;18.160;2023-05-20T05:01:55;102583.61;;;12.59;75.20
77454;BME280;66538;53.150;18.160;2023-05-20T05:04:22;102580.17;;;12.66;75.01
77454;BME280;66538;53.150;18.160;2023-05-20T05:06:49;102579.79;;;12.72;74.89
77454;BME280;66538;53.150;18.160;2023-05-20T05:09:15;102578.46;;;12.81;74.63
77454;BME280;66538;53.150;18.160;2023-05-20T05:11:42;102577.23;;;12.87;74.32
77454;BME280;66538;53.150;18.160;2023-05-20T05:14:09;102580.48;;;12.91;74.17
77454;BME280;66538;53.150;18.160;2023-05-20T05:16:36;102580.94;;;12.96;74.39
77454;BME280;66538;53.150;18.160;2023-05-20T05:19:02;102582.04;;;13.03;74.38
77454;BME280;66538;53.150;18.160;2023-05-20T05:21:31;102581.75;;;13.07;73.83
77454;BME280;66538;53.150;18.160;2023-05-20T05:23:58;102578.73;;;13.15;73.83
77454;BME280;66538;53.150;18.160;2023-05-20T05:26:24;102577.69;;;13.24;73.72
77454;BME280;66538;53.150;18.160;2023-05-20T05:28:53;102577.55;;;13.32;73.46
77454;BME280;66538;53.150;18.160;2023-05-20T05:31:20;102578.27;;;13.41;73.32
77454;BME280;66538;53.150;18.160;2023-05-20T05:33:47;102580.10;;;13.48;73.12
77454;BME280;66538;53.150;18.160;2023-05-20T05:36:15;102582.01;;;13.55;73.07
77454;BME280;66538;53.150;18.160;2023-05-20T05:38:42;102583.57;;;13.66;73.41
77454;BME280;66538;53.150;18.160;2023-05-20T05:41:09;102575.30;;;13.75;73.05
77454;BME280;66538;53.150;18.160;2023-05-20T05:43:36;102572.30;;;13.86;72.63
77454;BME280;66538;53.150;18.160;2023-05-20T05:46:04;102570.77;;;13.97;72.55
77454;BME280;66538;53.150;18.160;2023-05-20T05:48:30;102576.35;;;14.03;71.90
77454;BME280;66538;53.150;18.160;2023-05-20T05:50:57;102578.09;;;14.08;72.00
77454;BME280;66538;53.150;18.160;2023-05-20T05:53:25;102573.84;;;14.13;71.59
77454;BME280;66538;53.150;18.160;2023-05-20T05:55:51;102574.44;;;14.20;71.47
77454;BME280;66538;53.150;18.160;2023-05-20T05:58:18;102575.98;;;14.25;71.36
77454;BME280;66538;53.150;18.160;2023-05-20T06:00:45;102577.73;;;14.31;71.19
77454;BME280;66538;53.150;18.160;2023-05-20T06:03:12;102579.21;;;14.35;70.83
77454;BME280;66538;53.150;18.160;2023-05-20T06:05:39;102581.65;;;14.33;70.95
77454;BME280;66538;53.150;18.160;2023-05-20T06:08:10;102581.47;;;14.40;70.81
77454;BME280;66538;53.150;18.160;2023-05-20T06:10:36;102581.48;;;14.50;70.55
77454;BME280;66538;53.150;18.160;2023-05-20T06:13:03;102581.23;;;14.55;70.42
77454;BME280;66538;53.150;18.160;2023-05-20T06:15:30;102581.64;;;14.60;69.94
77454;BME280;66538;53.150;18.160;2023-05-20T06:17:57;102585.16;;;14.65;70.12
77454;BME280;66538;53.150;18.160;2023-05-20T06:20:25;102583.76;;;14.70;69.95
77454;BME280;66538;53.150;18.160;2023-05-20T06:22:52;102581.38;;;14.76;69.72
77454;BME280;66538;53.150;18.160;2023-05-20T06:25:19;102579.89;;;14.82;69.51
77454;BME280;66538;53.150;18.160;2023-05-20T06:27:45;102582.05;;;14.90;69.34
77454;BME280;66538;53.150;18.160;2023-05-20T06:30:16;102584.31;;;15.01;69.16
77454;BME280;66538;53.150;18.160;2023-05-20T06:32:43;102586.46;;;15.05;68.98
77454;BME280;66538;53.150;18.160;2023-05-20T06:35:10;102580.41;;;15.11;68.97
77454;BME280;66538;53.150;18.160;2023-05-20T06:37:37;102578.77;;;15.15;68.69
77454;BME280;66538;53.150;18.160;2023-05-20T06:40:05;102576.13;;;15.19;68.30
77454;BME280;66538;53.150;18.160;2023-05-20T06:42:33;102574.81;;;15.27;68.39
77454;BME280;66538;53.150;18.160;2023-05-20T06:45:04;102583.59;;;15.35;68.23
77454;BME280;66538;53.150;18.160;2023-05-20T06:47:42;102581.45;;;15.39;67.98
77454;BME280;66538;53.150;18.160;2023-05-20T06:50:09;102580.92;;;15.45;67.64
77454;BME280;66538;53.150;18.160;2023-05-20T06:52:36;102580.08;;;15.47;67.05
77454;BME280;66538;53.150;18.160;2023-05-20T06:55:04;102576.80;;;15.48;67.08
77454;BME280;66538;53.150;18.160;2023-05-20T06:57:31;102579.05;;;15.53;66.89
77454;BME280;66538;53.150;18.160;2023-05-20T06:59:58;102580.73;;;15.55;67.00
77454;BME280;66538;53.150;18.160;2023-05-20T07:02:25;102581.58;;;15.58;66.84
77454;BME280;66538;53.150;18.160;2023-05-20T07:04:51;102583.86;;;15.62;66.33
77454;BME280;66538;53.150;18.160;2023-05-20T07:07:18;102579.88;;;15.64;66.40
77454;BME280;66538;53.150;18.160;2023-05-20T07:09:46;102577.94;;;15.70;66.18
77454;BME280;66538;53.150;18.160;2023-05-20T07:12:12;102575.65;;;15.77;65.88
77454;BME280;66538;53.150;18.160;2023-05-20T07:14:39;102568.48;;;15.88;65.79
77454;BME280;66538;53.150;18.160;2023-05-20T07:17:05;102571.56;;;15.96;65.48
77454;BME280;66538;53.150;18.160;2023-05-20T07:19:32;102568.40;;;16.04;65.18
77454;BME280;66538;53.150;18.160;2023-05-20T07:21:59;102564.92;;;16.13;64.91
77454;BME280;66538;53.150;18.160;2023-05-20T07:24:44;102562.52;;;16.26;64.93
77454;BME280;66538;53.150;18.160;2023-05-20T07:27:10;102559.03;;;16.40;64.51
77454;BME280;66538;53.150;18.160;2023-05-20T07:29:37;102559.11;;;16.50;64.31
77454;BME280;66538;53.150;18.160;2023-05-20T07:32:04;102560.66;;;16.67;64.20
77454;BME280;66538;53.150;18.160;2023-05-20T07:34:33;102555.27;;;16.81;63.80
77454;BME280;66538;53.150;18.160;2023-05-20T07:36:59;102551.73;;;16.98;63.55
77454;BME280;66538;53.150;18.160;2023-05-20T07:39:26;102548.73;;;17.16;62.93
77454;BME280;66538;53.150;18.160;2023-05-20T07:41:53;102541.89;;;17.32;62.82
77454;BME280;66538;53.150;18.160;2023-05-20T07:44:20;102543.51;;;17.47;62.30
77454;BME280;66538;53.150;18.160;2023-05-20T07:46:49;102544.59;;;17.63;62.32
77454;BME280;66538;53.150;18.160;2023-05-20T07:49:16;102548.02;;;17.78;61.76
77454;BME280;66538;53.150;18.160;2023-05-20T07:51:43;102546.73;;;17.87;61.21
77454;BME280;66538;53.150;18.160;2023-05-20T07:54:11;102544.81;;;17.94;60.94
77454;BME280;66538;53.150;18.160;2023-05-20T07:56:37;102548.05;;;18.04;60.88
77454;BME280;66538;53.150;18.160;2023-05-20T07:59:05;102543.95;;;18.16;60.40
77454;BME280;66538;53.150;18.160;2023-05-20T08:01:41;102539.33;;;18.29;60.27
77454;BME280;66538;53.150;18.160;2023-05-20T08:04:08;102535.54;;;18.46;59.64
77454;BME280;66538;53.150;18.160;2023-05-20T08:06:36;102539.54;;;18.59;59.66
77454;BME280;66538;53.150;18.160;2023-05-20T08:09:03;102533.63;;;18.74;59.39
77454;BME280;66538;53.150;18.160;2023-05-20T08:11:33;102534.71;;;18.93;59.02
77454;BME280;66538;53.150;18.160;2023-05-20T08:14:00;102528.70;;;19.11;58.26
77454;BME280;66538;53.150;18.160;2023-05-20T08:16:29;102526.99;;;19.27;57.87
77454;BME280;66538;53.150;18.160;2023-05-20T08:18:56;102529.55;;;19.38;58.00
77454;BME280;66538;53.150;18.160;2023-05-20T08:21:23;102523.95;;;19.53;57.26
77454;BME280;66538;53.150;18.160;2023-05-20T08:23:49;102521.10;;;19.58;57.00
77454;BME280;66538;53.150;18.160;2023-05-20T08:26:16;102521.95;;;19.65;57.23
77454;BME280;66538;53.150;18.160;2023-05-20T08:28:43;102517.48;;;19.81;56.78
77454;BME280;66538;53.150;18.160;2023-05-20T08:31:10;102517.97;;;19.97;56.05
77454;BME280;66538;53.150;18.160;2023-05-20T08:33:36;102517.41;;;20.14;55.57
77454;BME280;66538;53.150;18.160;2023-05-20T08:36:03;102516.45;;;20.30;55.09
77454;BME280;66538;53.150;18.160;2023-05-20T08:38:30;102513.04;;;20.50;54.38
77454;BME280;66538;53.150;18.160;2023-05-20T08:40:56;102508.51;;;20.71;53.54
77454;BME280;66538;53.150;18.160;2023-05-20T08:43:25;102501.38;;;20.87;53.62
77454;BME280;66538;53.150;18.160;2023-05-20T08:45:52;102506.93;;;21.09;53.29
77454;BME280;66538;53.150;18.160;2023-05-20T08:48:21;102502.38;;;21.27;52.62
77454;BME280;66538;53.150;18.160;2023-05-20T08:50:50;102500.79;;;21.46;52.35
77454;BME280;66538;53.150;18.160;2023-05-20T08:53:21;102493.39;;;21.45;50.90
77454;BME280;66538;53.150;18.160;2023-05-20T08:55:56;102491.96;;;21.25;50.94
77454;BME280;66538;53.150;18.160;2023-05-20T08:58:25;102484.67;;;21.09;51.72
77454;BME280;66538;53.150;18.160;2023-05-20T09:00:54;102483.84;;;20.96;51.99
77454;BME280;66538;53.150;18.160;2023-05-20T09:03:20;102482.55;;;20.82;51.61
77454;BME280;66538;53.150;18.160;2023-05-20T09:05:47;102483.20;;;20.64;51.64
77454;BME280;66538;53.150;18.160;2023-05-20T09:08:14;102480.04;;;20.60;52.22
77454;BME280;66538;53.150;18.160;2023-05-20T09:10:41;102480.86;;;20.51;51.82
77454;BME280;66538;53.150;18.160;2023-05-20T09:13:09;102483.45;;;20.35;52.04
77454;BME280;66538;53.150;18.160;2023-05-20T09:15:36;102482.70;;;20.22;52.32
77454;BME280;66538;53.150;18.160;2023-05-20T09:18:05;102480.96;;;20.20;52.58
77454;BME280;66538;53.150;18.160;2023-05-20T09:20:33;102477.17;;;20.17;52.69
77454;BME280;66538;53.150;18.160;2023-05-20T09:23:04;102479.45;;;20.16;52.52
77454;BME280;66538;53.150;18.160;2023-05-20T09:25:32;102473.92;;;20.16;52.82
77454;BME280;66538;53.150;18.160;2023-05-20T09:27:58;102474.55;;;20.21;52.66
77454;BME280;66538;53.150;18.160;2023-05-20T09:30:25;102468.66;;;20.23;52.65
77454;BME280;66538;53.150;18.160;2023-05-20T09:32:56;102463.48;;;20.29;52.43
77454;BME280;66538;53.150;18.160;2023-05-20T09:35:24;102464.83;;;20.32;52.11
77454;BME280;66538;53.150;18.160;2023-05-20T09:37:52;102467.14;;;20.33;51.54
77454;BME280;66538;53.150;18.160;2023-05-20T09:40:22;102458.06;;;20.30;51.61
77454;BME280;66538;53.150;18.160;2023-05-20T09:43:01;102453.09;;;20.28;51.35
77454;BME280;66538;53.150;18.160;2023-05-20T09:45:29;102451.38;;;20.27;51.48
77454;BME280;66538;53.150;18.160;2023-05-20T09:47:56;102454.95;;;20.33;51.84
77454;BME280;66538;53.150;18.160;2023-05-20T09:50:23;102458.25;;;20.45;51.60
77454;BME280;66538;53.150;18.160;2023-05-20T09:52:52;102453.48;;;20.66;51.20
77454;BME280;66538;53.150;18.160;2023-05-20T09:55:22;102449.16;;;20.85;50.95
77454;BME280;66538;53.150;18.160;2023-05-20T09:57:48;102449.45;;;21.06;50.77
77454;BME280;66538;53.150;18.160;2023-05-20T10:00:16;102450.31;;;21.20;50.51
77454;BME280;66538;53.150;18.160;2023-05-20T10:02:48;102451.13;;;21.40;50.20
77454;BME280;66538;53.150;18.160;2023-05-20T10:05:24;102456.55;;;21.58;49.47
77454;BME280;66538;53.150;18.160;2023-05-20T10:08:03;102454.17;;;21.76;48.80
77454;BME280;66538;53.150;18.160;2023-05-20T10:13:31;102455.11;;;21.86;48.25
77454;BME280;66538;53.150;18.160;2023-05-20T10:19:04;102452.88;;;21.95;49.22
77454;BME280;66538;53.150;18.160;2023-05-20T10:21:36;102448.95;;;22.12;48.94
77454;BME280;66538;53.150;18.160;2023-05-20T10:24:09;102442.44;;;22.15;48.45
77454;BME280;66538;53.150;18.160;2023-05-20T10:26:38;102439.83;;;22.06;48.57
77454;BME280;66538;53.150;18.160;2023-05-20T10:29:14;102436.66;;;22.07;48.56
77454;BME280;66538;53.150;18.160;2023-05-20T10:31:48;102433.56;;;22.13;48.23
77454;BME280;66538;53.150;18.160;2023-05-20T10:34:16;102429.67;;;22.13;48.34
77454;BME280;66538;53.150;18.160;2023-05-20T10:36:55;102431.15;;;22.17;48.10
77454;BME280;66538;53.150;18.160;2023-05-20T10:39:28;102424.47;;;22.23;48.09
77454;BME280;66538;53.150;18.160;2023-05-20T10:42:08;102420.98;;;22.38;48.32
77454;BME280;66538;53.150;18.160;2023-05-20T10:47:09;102413.88;;;23.20;47.56
77454;BME280;66538;53.150;18.160;2023-05-20T10:49:42;102421.06;;;23.29;46.74
77454;BME280;66538;53.150;18.160;2023-05-20T10:52:10;102417.83;;;23.32;46.62
77454;BME280;66538;53.150;18.160;2023-05-20T10:54:45;102419.34;;;23.24;46.55
77454;BME280;66538;53.150;18.160;2023-05-20T10:57:12;102419.66;;;23.13;46.18
77454;BME280;66538;53.150;18.160;2023-05-20T10:59:39;102420.92;;;23.00;46.62
77454;BME280;66538;53.150;18.160;2023-05-20T11:02:09;102421.75;;;22.95;46.82
77454;BME280;66538;53.150;18.160;2023-05-20T11:04:37;102416.76;;;22.98;47.37
77454;BME280;66538;53.150;18.160;2023-05-20T11:07:04;102413.45;;;23.02;47.33
77454;BME280;66538;53.150;18.160;2023-05-20T11:09:31;102408.73;;;23.12;47.23
77454;BME280;66538;53.150;18.160;2023-05-20T11:11:59;102403.59;;;23.27;47.19
77454;BME280;66538;53.150;18.160;2023-05-20T11:14:29;102405.38;;;23.49;46.95
77454;BME280;66538;53.150;18.160;2023-05-20T11:16:57;102406.48;;;23.81;45.66
77454;BME280;66538;53.150;18.160;2023-05-20T11:19:25;102398.52;;;24.03;45.63
77454;BME280;66538;53.150;18.160;2023-05-20T11:21:52;102395.63;;;24.30;45.34
77454;BME280;66538;53.150;18.160;2023-05-20T11:24:24;102391.25;;;24.74;44.79
77454;BME280;66538;53.150;18.160;2023-05-20T11:26:56;102392.39;;;25.21;44.03
77454;BME280;66538;53.150;18.160;2023-05-20T11:29:25;102398.52;;;25.60;43.01
77454;BME280;66538;53.150;18.160;2023-05-20T11:31:52;102402.31;;;25.66;42.40
77454;BME280;66538;53.150;18.160;2023-05-20T11:34:22;102400.58;;;25.50;42.29
77454;BME280;66538;53.150;18.160;2023-05-20T11:36:56;102395.70;;;25.38;42.92
77454;BME280;66538;53.150;18.160;2023-05-20T11:39:23;102392.98;;;25.31;43.05
77454;BME280;66538;53.150;18.160;2023-05-20T11:41:50;102387.06;;;25.21;42.51
77454;BME280;66538;53.150;18.160;2023-05-20T11:44:18;102392.48;;;25.11;42.67
77454;BME280;66538;53.150;18.160;2023-05-20T11:46:46;102388.65;;;25.29;42.69
77454;BME280;66538;53.150;18.160;2023-05-20T11:49:14;102386.51;;;25.47;42.13
77454;BME280;66538;53.150;18.160;2023-05-20T11:51:41;102389.44;;;25.44;42.53
77454;BME280;66538;53.150;18.160;2023-05-20T11:54:09;102389.52;;;25.38;42.24
77454;BME280;66538;53.150;18.160;2023-05-20T11:56:37;102386.73;;;25.45;42.20
77454;BME280;66538;53.150;18.160;2023-05-20T11:59:04;102387.06;;;25.68;41.68
77454;BME280;66538;53.150;18.160;2023-05-20T12:01:32;102386.83;;;25.86;41.61
77454;BME280;66538;53.150;18.160;2023-05-20T12:03:59;102385.55;;;25.86;41.23
77454;BME280;66538;53.150;18.160;2023-05-20T12:06:26;102385.23;;;25.84;41.59
77454;BME280;66538;53.150;18.160;2023-05-20T12:08:53;102381.55;;;25.97;41.11
77454;BME280;66538;53.150;18.160;2023-05-20T12:11:19;102376.02;;;26.22;41.08
77454;BME280;66538;53.150;18.160;2023-05-20T12:13:47;102371.14;;;26.56;40.31
77454;BME280;66538;53.150;18.160;2023-05-20T12:16:13;102370.25;;;26.96;39.96
77454;BME280;66538;53.150;18.160;2023-05-20T12:18:40;102367.73;;;27.42;38.84
77454;BME280;66538;53.150;18.160;2023-05-20T12:21:06;102365.86;;;27.91;38.04
77454;BME280;66538;53.150;18.160;2023-05-20T12:23:33;102359.51;;;28.20;37.45
77454;BME280;66538;53.150;18.160;2023-05-20T12:26:00;102362.90;;;28.25;37.29
77454;BME280;66538;53.150;18.160;2023-05-20T12:28:27;102364.32;;;28.06;37.15
77454;BME280;66538;53.150;18.160;2023-05-20T12:30:53;102363.30;;;27.65;37.15
77454;BME280;66538;53.150;18.160;2023-05-20T12:33:20;102358.55;;;27.35;38.03
77454;BME280;66538;53.150;18.160;2023-05-20T12:35:47;102356.02;;;27.27;38.07
77454;BME280;66538;53.150;18.160;2023-05-20T12:38:14;102357.84;;;27.15;37.93
77454;BME280;66538;53.150;18.160;2023-05-20T12:40:40;102351.80;;;27.07;38.23
77454;BME280;66538;53.150;18.160;2023-05-20T12:43:07;102343.33;;;27.16;37.98
77454;BME280;66538;53.150;18.160;2023-05-20T12:45:34;102344.10;;;27.20;38.13
77454;BME280;66538;53.150;18.160;2023-05-20T12:48:01;102340.57;;;27.47;37.90
77454;BME280;66538;53.150;18.160;2023-05-20T12:50:27;102338.59;;;27.91;37.52
77454;BME280;66538;53.150;18.160;2023-05-20T12:52:54;102334.70;;;28.27;36.65
77454;BME280;66538;53.150;18.160;2023-05-20T12:55:21;102331.30;;;28.69;36.22